34NE weather

Evans Ranch Airport
Hershey, Nebraska, United States

Public forecast

Using degrees Fahrenheit for public forecast. Weather courtesy of forecast.io.

Closest aviation weather report (METAR) to Evans Ranch Airport

Closest report is North Platte Regional Airport Lee Bird Field, 12.8 nm (23.7 km) ESE. Retrieved 2019/10/15 01:53 UTC (29 minutes ago):

KLBF 150153Z AUTO 00000KT 10SM CLR 09/M04 A2980 RMK AO2 SLP101 T00941039

Closest aviation forecast (TAF) to Evans Ranch Airport

Closest forecast is North Platte Regional Airport Lee Bird Field, 12.8 nm (23.7 km) ESE. Retrieved 2019-10-15 00:22 UTC (2 hours ago):

TAF KLBF 142320Z 1500/1524 35010KT P6SM SCT200 FM151500 33014G22KT P6SM SKC FM151800 33020G28KT P6SM SKC